Salem, Alabama
Current Conditions -  °F | °C
As of 9:55 AM on Sunday 21 Dec 2014 (Local Time) from KAUO Reporting Station
Overcast Overcast  
Wind Chill: 45°   Ceiling: 500
Heat Index: 48°   Visibility: 5mi
Dew Point: 45°   Wind: 8mph
Humidity: 87%   Direction: 70°ENE
Pressure: 30.19"   Gusts: NA
Location:  32.6°N, 85.24°W
Report Text: KAUO 211555Z AUTO 07007KT 5SM OVC005 09/07 A3019 RMK AO1
Loading
Personal Weather Stations






























Interactive Weather Map New forecast layout! Learn more

10-Day Weather Forecast

Advertisements
Track Severe Weather on mobile